Aviation Digital Data Service (ADDS)

Output produced by METARs form (1202 UTC 16 July 2019)
found at http://www.aviationweather.gov/metar/data/
 
KXNA 161120Z 1612/1712 27003KT P6SM BKN050 
     FM161600 26007KT P6SM BKN035 
     FM170100 VRB03KT P6SM SKC